Time;durP1;ratioP1;P1;durP2;ratioP2;P2;SDS_P1;SDS_P2;PMS_P1;PMS_P2;Temp;Humidity;BMP_temperature;BMP_pressure;BME280_temperature;BME280_humidity;BME280_pressure;Samples;Min_cycle;Max_cycle;Signal;HPM_P1;HPM_P2
2022/05/13 00:00:18;;;;;;;3.85;0.70;;;18.30;83.00;;;;;;5075123;28;20087;-66
2022/05/13 00:02:45;;;;;;;1.90;0.47;;;18.30;83.10;;;;;;5073950;28;20039;-66
2022/05/13 00:05:12;;;;;;;2.70;0.75;;;18.30;83.10;;;;;;5076943;28;20115;-68
2022/05/13 00:07:38;;;;;;;0.95;0.50;;;18.30;83.10;;;;;;5072713;28;20036;-68
2022/05/13 00:10:05;;;;;;;1.42;0.65;;;18.20;83.00;;;;;;5075058;28;20031;-69
2022/05/13 00:12:40;;;;;;;0.52;0.47;;;18.30;83.10;;;;;;5074515;28;20044;-66
2022/05/13 00:15:12;;;;;;;0.80;0.40;;;18.20;83.10;;;;;;5074887;28;20040;-66
2022/05/13 00:17:38;;;;;;;3.33;0.57;;;18.20;83.20;;;;;;5074363;28;20042;-70
2022/05/13 00:20:07;;;;;;;2.00;0.60;;;18.20;83.20;;;;;;5072086;28;20111;-65
2022/05/13 00:22:34;;;;;;;1.58;0.43;;;18.20;83.40;;;;;;5077412;28;20051;-68
2022/05/13 00:25:00;;;;;;;2.42;0.38;;;18.20;83.40;;;;;;5073436;28;20032;-69
2022/05/13 00:27:27;;;;;;;1.55;0.40;;;18.20;83.60;;;;;;5075153;28;20029;-68
2022/05/13 00:29:55;;;;;;;1.02;0.40;;;18.20;83.80;;;;;;5071121;28;20037;-69
2022/05/13 00:32:22;;;;;;;1.40;0.50;;;18.20;83.80;;;;;;5077859;28;20036;-70
2022/05/13 00:34:49;;;;;;;4.57;0.43;;;18.20;83.80;;;;;;5073631;28;20036;-69
2022/05/13 00:37:17;;;;;;;1.08;0.30;;;18.20;83.90;;;;;;5082602;28;20023;-70
2022/05/13 00:39:45;;;;;;;0.32;0.32;;;18.20;83.90;;;;;;5074068;28;20461;-69
2022/05/13 00:42:14;;;;;;;3.00;0.68;;;18.20;84.00;;;;;;5073471;28;20471;-67
2022/05/13 00:44:41;;;;;;;0.60;0.30;;;18.20;84.00;;;;;;5074645;28;20047;-67
2022/05/13 00:47:08;;;;;;;2.92;0.93;;;18.10;84.00;;;;;;5072397;28;20782;-67
2022/05/13 00:49:35;;;;;;;1.08;0.63;;;18.20;84.10;;;;;;5076380;28;20039;-66
2022/05/13 00:52:03;;;;;;;0.40;0.30;;;18.10;84.10;;;;;;5074540;28;20036;-67
2022/05/13 00:54:32;;;;;;;1.60;0.70;;;18.10;84.00;;;;;;5074808;28;20043;-70
2022/05/13 00:56:59;;;;;;;3.65;0.60;;;18.10;84.10;;;;;;5072340;28;20020;-69
2022/05/13 00:59:29;;;;;;;3.08;0.73;;;18.10;84.10;;;;;;5075741;28;20043;-70
2022/05/13 01:01:57;;;;;;;5.15;0.70;;;18.10;84.20;;;;;;5072994;28;20028;-69
2022/05/13 01:04:25;;;;;;;0.52;0.35;;;18.10;84.30;;;;;;5074400;28;20388;-68
2022/05/13 01:06:57;;;;;;;1.95;0.93;;;18.10;84.40;;;;;;5071944;28;20027;-68
2022/05/13 01:09:27;;;;;;;1.58;0.40;;;18.10;84.40;;;;;;5073587;28;20029;-68
2022/05/13 01:12:02;;;;;;;1.52;0.45;;;18.10;84.30;;;;;;5072985;28;20532;-70
2022/05/13 01:14:37;;;;;;;2.95;0.70;;;18.10;84.30;;;;;;5079579;28;20770;-70
2022/05/13 01:20:17;;;;;;;2.67;0.55;;;18.10;84.20;;;;;;5075602;28;20108;-68
2022/05/13 01:22:56;;;;;;;3.47;1.42;;;18.10;84.30;;;;;;5076775;28;20028;-66
2022/05/13 01:25:25;;;;;;;5.63;0.70;;;18.10;84.30;;;;;;5076238;28;20127;-70
2022/05/13 01:27:54;;;;;;;4.03;1.08;;;18.10;84.50;;;;;;5077291;28;20163;-69
2022/05/13 01:30:30;;;;;;;1.70;0.70;;;18.10;84.50;;;;;;5070286;28;20464;-69
2022/05/13 01:32:57;;;;;;;2.78;0.40;;;18.10;84.50;;;;;;5080413;28;20031;-66
2022/05/13 01:35:24;;;;;;;1.90;0.70;;;18.10;84.40;;;;;;5082329;28;20081;-69
2022/05/13 01:37:53;;;;;;;1.38;0.52;;;18.10;84.30;;;;;;5078850;28;20024;-66
2022/05/13 01:40:20;;;;;;;4.97;0.55;;;18.00;84.20;;;;;;5078691;28;20021;-68
2022/05/13 01:42:47;;;;;;;2.45;0.60;;;18.00;84.10;;;;;;5075057;28;20119;-68
2022/05/13 01:45:14;;;;;;;1.13;0.50;;;18.00;84.00;;;;;;5078072;28;20549;-70
2022/05/13 01:47:41;;;;;;;5.03;0.60;;;18.00;84.10;;;;;;5073071;28;20364;-70
2022/05/13 01:50:14;;;;;;;2.90;0.50;;;18.00;84.20;;;;;;5075075;28;20040;-70
2022/05/13 01:52:40;;;;;;;2.08;1.10;;;18.00;84.30;;;;;;5073957;28;20040;-68
2022/05/13 01:55:07;;;;;;;1.63;1.00;;;18.00;84.40;;;;;;5078556;28;20032;-66
2022/05/13 01:57:34;;;;;;;3.63;0.70;;;18.00;84.40;;;;;;5074753;28;20074;-64
2022/05/13 02:00:01;;;;;;;2.15;0.60;;;18.00;84.40;;;;;;5078027;28;20035;-64
2022/05/13 02:02:28;;;;;;;1.40;0.55;;;18.00;84.40;;;;;;5079624;28;20096;-68
2022/05/13 02:04:54;;;;;;;1.38;0.68;;;18.00;84.40;;;;;;5075158;28;20039;-66
2022/05/13 02:07:21;;;;;;;0.50;0.50;;;18.00;84.40;;;;;;5076631;28;20178;-64
2022/05/13 02:09:48;;;;;;;1.35;0.57;;;18.00;84.30;;;;;;5077076;28;20016;-64
2022/05/13 02:12:14;;;;;;;1.70;0.80;;;18.00;84.20;;;;;;5077290;28;20483;-65
2022/05/13 02:14:40;;;;;;;4.45;0.90;;;18.00;84.20;;;;;;5077948;28;20089;-64
2022/05/13 02:17:07;;;;;;;6.00;0.95;;;17.90;84.20;;;;;;5077847;28;20092;-67
2022/05/13 02:19:33;;;;;;;2.28;1.10;;;18.00;84.40;;;;;;5076071;28;20028;-69
2022/05/13 02:22:00;;;;;;;3.50;0.80;;;18.00;84.40;;;;;;5075686;28;20036;-66
2022/05/13 02:24:26;;;;;;;2.25;0.85;;;18.00;84.50;;;;;;5079784;28;20385;-67
2022/05/13 02:26:53;;;;;;;0.60;0.60;;;17.90;84.40;;;;;;5078825;28;20089;-65
2022/05/13 02:29:19;;;;;;;1.95;0.90;;;17.90;84.40;;;;;;5079533;28;20054;-66
2022/05/13 02:31:45;;;;;;;0.82;0.70;;;18.00;84.50;;;;;;5077149;28;20116;-67
2022/05/13 02:34:12;;;;;;;1.30;0.65;;;17.90;84.40;;;;;;5075412;28;20491;-65
2022/05/13 02:36:39;;;;;;;2.15;0.70;;;17.90;84.50;;;;;;5076216;28;20028;-70
2022/05/13 02:39:05;;;;;;;3.58;1.10;;;17.90;84.50;;;;;;5076316;28;20078;-64
2022/05/13 02:41:34;;;;;;;3.92;1.15;;;18.00;84.60;;;;;;5079733;28;20028;-67
2022/05/13 02:44:01;;;;;;;2.28;1.08;;;17.90;84.50;;;;;;5073993;28;20027;-69
2022/05/13 02:46:32;;;;;;;2.72;1.30;;;17.90;84.50;;;;;;5078877;28;20624;-69
2022/05/13 02:49:01;;;;;;;4.65;1.15;;;17.90;84.50;;;;;;5075709;28;20684;-68
2022/05/13 02:51:29;;;;;;;1.90;1.50;;;18.00;84.90;;;;;;5078407;28;20031;-69
2022/05/13 02:53:56;;;;;;;1.08;0.90;;;17.90;84.70;;;;;;5077017;28;20043;-69
2022/05/13 02:56:22;;;;;;;1.60;1.10;;;17.90;84.80;;;;;;5075572;28;20017;-67
2022/05/13 02:58:49;;;;;;;2.80;1.23;;;17.90;84.80;;;;;;5077322;28;20020;-68
2022/05/13 03:01:18;;;;;;;11.85;1.50;;;18.00;85.10;;;;;;5074242;28;20027;-69
2022/05/13 03:03:48;;;;;;;2.80;1.30;;;18.00;85.30;;;;;;5079379;28;20042;-69
2022/05/13 03:06:14;;;;;;;6.13;1.75;;;18.00;85.30;;;;;;5074418;28;20064;-68
2022/05/13 03:08:42;;;;;;;4.30;1.77;;;18.00;85.40;;;;;;5079444;28;20024;-68
2022/05/13 03:11:09;;;;;;;3.25;1.08;;;18.00;85.50;;;;;;5075723;28;20028;-69
2022/05/13 03:13:36;;;;;;;6.93;1.45;;;18.00;85.70;;;;;;5078192;28;20409;-69
2022/05/13 03:16:08;;;;;;;11.20;1.83;;;18.00;85.80;;;;;;5077767;28;20052;-67
2022/05/13 03:18:38;;;;;;;1.33;1.00;;;18.00;85.90;;;;;;5077665;28;20028;-67
2022/05/13 03:21:05;;;;;;;4.90;1.10;;;17.90;85.90;;;;;;5076615;28;20040;-68
2022/05/13 03:23:33;;;;;;;3.90;1.30;;;18.00;85.90;;;;;;5074297;28;20023;-68
2022/05/13 03:26:00;;;;;;;2.33;1.33;;;18.00;85.90;;;;;;5074080;28;20036;-69
2022/05/13 03:28:26;;;;;;;3.42;1.40;;;17.90;86.00;;;;;;5075239;28;20028;-69
2022/05/13 03:30:53;;;;;;;4.80;1.40;;;17.90;85.90;;;;;;5079582;28;20043;-68
2022/05/13 03:33:20;;;;;;;9.98;5.00;;;17.90;85.90;;;;;;5076855;28;20021;-70
2022/05/13 03:35:47;;;;;;;13.10;9.43;;;17.90;86.00;;;;;;5077054;28;20374;-69
2022/05/13 03:38:13;;;;;;;12.20;9.43;;;17.90;86.00;;;;;;5077854;28;20029;-67
2022/05/13 03:40:40;;;;;;;15.02;13.30;;;17.90;86.00;;;;;;5077010;28;20028;-67
2022/05/13 03:43:07;;;;;;;15.50;9.43;;;17.90;85.90;;;;;;5074217;28;20032;-67
2022/05/13 03:45:36;;;;;;;9.73;5.82;;;17.90;86.00;;;;;;5078430;28;20044;-69
2022/05/13 03:48:04;;;;;;;5.35;2.60;;;17.80;86.00;;;;;;5078055;28;20043;-67
2022/05/13 03:50:32;;;;;;;2.10;1.80;;;17.80;86.10;;;;;;5075806;28;20054;-67
2022/05/13 03:53:00;;;;;;;1.98;1.40;;;17.80;86.00;;;;;;5074435;28;20021;-68
2022/05/13 03:55:27;;;;;;;1.38;0.80;;;17.80;86.00;;;;;;5074041;28;20087;-67
2022/05/13 03:57:53;;;;;;;4.15;1.15;;;17.80;86.10;;;;;;5072753;28;20029;-66
2022/05/13 04:00:20;;;;;;;0.70;0.70;;;17.80;86.20;;;;;;5074101;28;20024;-69
2022/05/13 04:02:47;;;;;;;7.45;1.55;;;17.80;86.20;;;;;;5070867;28;20040;-70
2022/05/13 04:10:47;;;;;;;3.10;0.73;;;17.80;86.40;;;;;;5080087;28;20505;-66
2022/05/13 04:16:04;;;;;;;2.80;0.60;;;17.90;86.70;;;;;;5076637;28;20395;-69
2022/05/13 04:18:33;;;;;;;7.85;1.38;;;17.80;86.70;;;;;;5078804;28;20024;-68
2022/05/13 04:20:59;;;;;;;8.80;0.90;;;17.80;86.70;;;;;;5075085;28;20513;-68
2022/05/13 04:23:27;;;;;;;5.10;1.05;;;17.80;86.70;;;;;;5073871;28;20459;-70
2022/05/13 04:25:53;;;;;;;3.25;0.77;;;17.80;86.60;;;;;;5073838;28;20052;-68
2022/05/13 04:28:20;;;;;;;3.83;1.17;;;17.80;86.60;;;;;;5073849;28;20029;-69
2022/05/13 04:30:46;;;;;;;3.30;0.95;;;17.80;86.60;;;;;;5075374;28;20376;-70
2022/05/13 04:33:14;;;;;;;4.93;0.98;;;17.90;87.00;;;;;;5074284;28;20319;-68
2022/05/13 04:35:41;;;;;;;4.28;0.88;;;17.80;86.30;;;;;;5075857;28;20016;-67
2022/05/13 04:38:08;;;;;;;56.88;39.78;;;17.80;87.30;;;;;;5074952;28;20479;-68
2022/05/13 04:40:35;;;;;;;51.28;40.00;;;17.80;86.90;;;;;;5071251;28;20020;-68
2022/05/13 04:43:01;;;;;;;40.83;31.98;;;17.70;86.90;;;;;;5073538;28;20056;-67
2022/05/13 04:45:30;;;;;;;19.55;15.65;;;17.70;86.90;;;;;;5073274;28;20040;-68
2022/05/13 04:48:16;;;;;;;12.77;8.20;;;17.70;86.80;;;;;;5075805;28;20028;-68
2022/05/13 04:51:20;;;;;;;8.85;6.20;;;17.70;86.60;;;;;;5080238;28;20035;-68
2022/05/13 04:53:49;;;;;;;3.67;2.85;;;17.70;86.40;;;;;;5075555;28;20036;-68
2022/05/13 04:56:17;;;;;;;4.90;2.10;;;17.60;86.20;;;;;;5075007;28;20028;-68
2022/05/13 04:58:43;;;;;;;28.33;21.42;;;17.60;86.10;;;;;;5079557;28;20127;-67
2022/05/13 05:01:11;;;;;;;29.33;20.05;;;17.60;86.00;;;;;;5072723;28;20032;-67
2022/05/13 05:03:40;;;;;;;15.60;12.07;;;17.60;86.00;;;;;;5077427;28;20058;-65
2022/05/13 05:06:08;;;;;;;6.97;5.22;;;17.60;85.90;;;;;;5078620;28;20495;-65
2022/05/13 05:08:35;;;;;;;6.40;4.65;;;17.60;86.00;;;;;;5076592;28;20021;-65
2022/05/13 05:11:03;;;;;;;7.82;3.00;;;17.60;86.00;;;;;;5077533;28;20051;-66
2022/05/13 05:13:36;;;;;;;3.67;3.00;;;17.60;85.90;;;;;;5078523;28;20072;-65
2022/05/13 05:16:03;;;;;;;6.47;1.58;;;17.50;86.00;;;;;;5078929;28;20034;-68
2022/05/13 05:18:31;;;;;;;3.30;1.30;;;17.50;86.00;;;;;;5075244;28;20031;-68
2022/05/13 05:20:58;;;;;;;4.13;1.38;;;17.50;85.90;;;;;;5077850;28;20056;-65
2022/05/13 05:23:32;;;;;;;3.13;1.50;;;17.50;85.80;;;;;;5084295;28;20036;-65
2022/05/13 05:26:00;;;;;;;2.78;0.80;;;17.50;85.80;;;;;;5078736;28;20036;-67
2022/05/13 05:28:28;;;;;;;1.85;0.93;;;17.50;85.80;;;;;;5076017;28;20024;-66
2022/05/13 05:31:00;;;;;;;3.70;1.13;;;17.50;85.90;;;;;;5081606;28;20016;-66
2022/05/13 05:33:27;;;;;;;2.72;1.23;;;17.50;85.90;;;;;;5080414;28;20028;-67
2022/05/13 05:35:54;;;;;;;2.00;0.70;;;17.50;85.90;;;;;;5077531;28;20012;-68
2022/05/13 05:38:20;;;;;;;8.07;1.80;;;17.50;86.00;;;;;;5072615;28;20081;-68
2022/05/13 05:40:46;;;;;;;5.47;1.50;;;17.50;86.20;;;;;;5076014;28;20020;-66
2022/05/13 05:43:15;;;;;;;3.17;1.98;;;17.50;86.70;;;;;;5077592;28;20027;-67
2022/05/13 05:45:43;;;;;;;6.30;1.52;;;17.50;87.00;;;;;;5077018;28;20048;-67
2022/05/13 05:48:11;;;;;;;2.70;1.30;;;17.50;87.20;;;;;;5075479;28;20082;-66
2022/05/13 05:50:38;;;;;;;4.00;1.35;;;17.50;87.30;;;;;;5079396;28;20051;-66
2022/05/13 05:53:04;;;;;;;3.33;1.15;;;17.50;87.30;;;;;;5085630;28;20048;-67
2022/05/13 05:58:18;;;;;;;2.13;1.17;;;17.50;87.40;;;;;;5080155;28;20035;-68
2022/05/13 06:00:48;;;;;;;6.85;1.17;;;17.50;87.40;;;;;;5082338;28;20274;-66
2022/05/13 06:03:15;;;;;;;1.17;0.90;;;17.50;87.40;;;;;;5077395;28;20388;-68
2022/05/13 06:05:43;;;;;;;2.38;1.00;;;17.50;87.40;;;;;;5077349;28;20474;-67
2022/05/13 06:08:09;;;;;;;1.42;0.90;;;17.50;87.50;;;;;;5076268;28;20093;-67
2022/05/13 06:10:37;;;;;;;2.22;0.95;;;17.50;87.50;;;;;;5078324;28;20354;-66
2022/05/13 06:13:07;;;;;;;2.15;0.60;;;17.50;87.50;;;;;;5078360;28;20037;-68
2022/05/13 06:15:34;;;;;;;1.85;0.88;;;17.50;87.50;;;;;;5084064;28;20483;-69
2022/05/13 06:18:01;;;;;;;2.10;0.43;;;17.50;87.60;;;;;;5074944;28;20048;-69
2022/05/13 06:20:31;;;;;;;2.65;0.70;;;17.50;87.60;;;;;;5078067;28;20092;-67
2022/05/13 06:22:58;;;;;;;1.83;0.77;;;17.50;87.70;;;;;;5082485;28;20028;-67
2022/05/13 06:25:25;;;;;;;0.80;0.40;;;17.50;87.70;;;;;;5085241;28;20503;-70
2022/05/13 06:27:53;;;;;;;0.95;0.63;;;17.50;87.70;;;;;;5085194;28;20024;-68
2022/05/13 06:30:28;;;;;;;0.80;0.50;;;17.50;87.60;;;;;;5083123;28;20066;-69
2022/05/13 06:32:55;;;;;;;0.63;0.45;;;17.50;87.60;;;;;;5083419;28;20356;-69
2022/05/13 06:35:23;;;;;;;0.77;0.40;;;17.50;87.50;;;;;;5083266;28;20474;-70
2022/05/13 06:37:51;;;;;;;2.15;0.82;;;17.50;87.50;;;;;;5081738;28;20073;-69
2022/05/13 06:40:18;;;;;;;1.52;1.02;;;17.50;87.40;;;;;;5079740;28;20483;-68
2022/05/13 06:42:45;;;;;;;1.13;0.65;;;17.50;87.50;;;;;;5084622;28;20047;-70
2022/05/13 06:45:12;;;;;;;1.75;0.82;;;17.50;87.60;;;;;;5080364;28;20123;-68
2022/05/13 06:47:39;;;;;;;8.30;1.38;;;17.50;87.60;;;;;;5080438;28;20024;-67
2022/05/13 06:50:07;;;;;;;10.57;1.00;;;17.50;87.60;;;;;;5085991;28;20479;-69
2022/05/13 06:52:34;;;;;;;30.00;2.95;;;17.50;87.60;;;;;;5085191;28;20028;-68
2022/05/13 06:55:04;;;;;;;75.30;7.57;;;17.50;87.70;;;;;;5076695;28;20095;-69
2022/05/13 06:57:37;;;;;;;17.50;1.98;;;17.50;87.70;;;;;;5069510;28;20270;-68
2022/05/13 07:00:06;;;;;;;9.57;1.83;;;17.50;87.60;;;;;;5076196;28;20025;-70
2022/05/13 07:02:33;;;;;;;6.85;2.17;;;17.50;87.70;;;;;;5078845;28;20058;-69
2022/05/13 07:04:59;;;;;;;8.32;1.92;;;17.50;88.00;;;;;;5078011;28;20036;-68
2022/05/13 07:07:34;;;;;;;3.63;2.03;;;17.50;88.30;;;;;;5079893;28;20149;-68
2022/05/13 07:10:01;;;;;;;6.80;4.40;;;17.50;88.40;;;;;;5084929;28;20020;-69
2022/05/13 07:12:29;;;;;;;4.65;3.30;;;17.50;88.50;;;;;;5079703;28;20032;-69
2022/05/13 07:14:55;;;;;;;4.43;1.80;;;17.60;88.60;;;;;;5080041;28;20111;-69
2022/05/13 07:17:22;;;;;;;4.38;1.80;;;17.60;88.60;;;;;;5082196;28;20479;-70
2022/05/13 07:19:49;;;;;;;5.80;1.90;;;17.60;88.70;;;;;;5077481;28;20029;-69
2022/05/13 07:22:16;;;;;;;5.57;2.13;;;17.60;88.80;;;;;;5076826;28;20527;-70
2022/05/13 07:24:42;;;;;;;6.70;3.78;;;17.60;88.80;;;;;;5085338;28;20036;-65
2022/05/13 07:27:10;;;;;;;8.15;2.95;;;17.70;88.90;;;;;;5079788;28;20110;-66
2022/05/13 07:29:37;;;;;;;3.30;2.25;;;17.70;88.90;;;;;;5085189;28;20119;-66
2022/05/13 07:32:03;;;;;;;4.22;1.55;;;17.70;88.80;;;;;;5081344;28;20024;-68
2022/05/13 07:34:30;;;;;;;5.88;1.60;;;17.70;88.90;;;;;;5082957;28;20513;-66
2022/05/13 07:36:56;;;;;;;4.30;1.40;;;17.70;88.90;;;;;;5075535;28;20027;-66
2022/05/13 07:42:10;;;;;;;11.23;1.50;;;17.70;89.00;;;;;;5080507;28;20046;-66
2022/05/13 07:44:37;;;;;;;6.57;1.45;;;17.80;89.20;;;;;;5077183;28;20115;-65
2022/05/13 07:47:06;;;;;;;3.50;1.48;;;17.80;89.30;;;;;;5078415;28;20020;-66
2022/05/13 07:49:34;;;;;;;2.20;1.10;;;17.80;89.30;;;;;;5084807;28;20030;-67
2022/05/13 07:52:01;;;;;;;2.92;1.35;;;17.80;89.10;;;;;;5082063;28;20020;-67
2022/05/13 07:54:33;;;;;;;16.25;1.98;;;17.80;89.10;;;;;;5084768;28;20142;-67
2022/05/13 07:57:00;;;;;;;2.03;1.52;;;17.80;89.00;;;;;;5077542;28;20509;-65
2022/05/13 07:59:27;;;;;;;4.22;1.13;;;17.80;89.10;;;;;;5089743;28;20024;-67
2022/05/13 08:01:54;;;;;;;4.07;1.40;;;17.80;89.40;;;;;;5083416;28;20032;-65
2022/05/13 08:04:21;;;;;;;4.55;1.90;;;17.90;89.60;;;;;;5079807;28;20349;-65
2022/05/13 08:06:47;;;;;;;5.93;1.40;;;17.80;89.70;;;;;;5081604;28;20033;-67
2022/05/13 08:09:13;;;;;;;2.45;1.67;;;17.90;89.90;;;;;;5075680;28;20016;-66
2022/05/13 08:11:40;;;;;;;4.05;1.85;;;17.90;89.80;;;;;;5080326;28;20475;-67
2022/05/13 08:14:07;;;;;;;6.90;1.95;;;17.90;89.80;;;;;;5083192;28;20550;-68
2022/05/13 08:16:35;;;;;;;11.15;2.78;;;18.00;89.70;;;;;;5085657;28;20043;-67
2022/05/13 08:19:02;;;;;;;10.32;2.50;;;18.00;89.80;;;;;;5079235;28;20028;-68
2022/05/13 08:21:29;;;;;;;1.75;1.55;;;18.00;89.80;;;;;;5085447;28;20048;-66
2022/05/13 08:23:55;;;;;;;4.18;2.10;;;18.00;89.70;;;;;;5076037;28;20498;-68
2022/05/13 08:26:22;;;;;;;2.97;2.10;;;18.10;89.60;;;;;;5076944;28;20032;-69
2022/05/13 08:28:48;;;;;;;2.88;2.00;;;18.10;89.60;;;;;;5078591;28;20526;-68
2022/05/13 08:31:15;;;;;;;16.58;3.63;;;18.10;89.70;;;;;;5077611;28;20028;-68
2022/05/13 08:33:42;;;;;;;5.25;2.80;;;18.20;89.80;;;;;;5078965;28;20019;-65
2022/05/13 08:36:09;;;;;;;3.53;2.92;;;18.10;89.70;;;;;;5074634;28;20051;-65
2022/05/13 08:38:40;;;;;;;8.50;3.30;;;18.20;89.80;;;;;;5079855;28;20029;-66
2022/05/13 08:41:10;;;;;;;6.43;2.67;;;18.20;89.80;;;;;;5076362;28;20043;-66
2022/05/13 08:43:53;;;;;;;6.10;3.13;;;18.20;89.90;;;;;;5085546;28;20043;-67
2022/05/13 08:46:36;;;;;;;5.63;2.63;;;18.30;89.90;;;;;;5081879;28;20083;-68
2022/05/13 08:49:15;;;;;;;4.07;2.83;;;18.30;90.00;;;;;;5079646;28;20481;-66
2022/05/13 08:51:52;;;;;;;6.85;3.05;;;18.40;90.00;;;;;;5082650;28;20248;-67
2022/05/13 08:54:21;;;;;;;7.90;3.20;;;18.40;90.00;;;;;;5084301;28;20414;-71
2022/05/13 08:56:58;;;;;;;4.90;3.55;;;18.40;89.90;;;;;;5077251;28;20078;-66
2022/05/13 08:59:38;;;;;;;8.60;3.20;;;18.50;89.90;;;;;;5079945;28;20029;-67
2022/05/13 09:02:21;;;;;;;10.32;3.75;;;18.60;90.00;;;;;;5075009;28;20050;-69
2022/05/13 09:05:02;;;;;;;8.38;3.22;;;18.60;89.80;;;;;;5079877;28;20131;-67
2022/05/13 09:07:29;;;;;;;3.55;2.88;;;18.70;89.70;;;;;;5080120;28;20058;-67
2022/05/13 09:10:02;;;;;;;6.30;3.78;;;18.70;89.50;;;;;;5078232;28;20560;-68
2022/05/13 09:12:44;;;;;;;6.55;3.60;;;18.80;89.50;;;;;;5075843;28;20123;-69
2022/05/13 09:15:23;;;;;;;11.00;5.40;;;18.80;89.40;;;;;;5080712;28;20077;-68
2022/05/13 09:18:06;;;;;;;7.32;4.15;;;18.80;89.30;;;;;;5075464;28;20032;-70
2022/05/13 09:20:50;;;;;;;4.30;3.88;;;18.90;89.10;;;;;;5079140;28;20058;-67
2022/05/13 09:23:18;;;;;;;10.27;4.55;;;18.90;88.90;;;;;;5075992;28;20467;-68
2022/05/13 09:25:54;;;;;;;10.40;4.63;;;19.00;88.80;;;;;;5080676;28;20495;-69
2022/05/13 09:28:22;;;;;;;6.05;3.42;;;19.00;88.60;;;;;;5074419;28;20609;-73
2022/05/13 09:30:53;;;;;;;23.42;5.28;;;19.00;88.50;;;;;;5079377;28;20036;-72
2022/05/13 09:33:39;;;;;;;743.10;633.90;;;19.00;88.40;;;;;;5077944;28;20028;-66
2022/05/13 09:36:28;;;;;;;72.43;64.72;;;19.20;88.50;;;;;;5074986;28;20021;-71
2022/05/13 09:38:57;;;;;;;22.60;14.40;;;19.20;88.40;;;;;;5081409;28;20023;-67
2022/05/13 09:41:26;;;;;;;19.77;10.07;;;19.30;87.90;;;;;;5073983;28;20033;-69
2022/05/13 09:43:55;;;;;;;24.00;8.52;;;19.30;87.10;;;;;;5075000;28;20059;-69
2022/05/13 09:46:30;;;;;;;21.40;8.18;;;19.40;86.80;;;;;;5081253;28;20037;-66
2022/05/13 09:49:10;;;;;;;9.73;3.85;;;19.40;86.50;;;;;;5085236;28;20008;-67
2022/05/13 09:52:00;;;;;;;12.60;3.95;;;19.50;86.80;;;;;;5082527;28;20479;-67
2022/05/13 09:54:33;;;;;;;6.57;3.17;;;19.50;85.60;;;;;;5078990;28;20024;-69
2022/05/13 09:57:34;;;;;;;7.90;3.50;;;19.50;84.80;;;;;;5075945;28;20035;-67
2022/05/13 10:00:08;;;;;;;8.77;3.42;;;19.50;83.80;;;;;;5083255;28;20027;-66
2022/05/13 10:02:40;;;;;;;8.32;3.58;;;19.50;83.30;;;;;;5078590;28;20032;-68
2022/05/13 10:05:19;;;;;;;12.32;4.35;;;19.50;83.10;;;;;;5082655;28;20475;-67
2022/05/13 10:07:51;;;;;;;10.23;4.13;;;19.60;82.90;;;;;;5085499;28;20044;-68
2022/05/13 10:16:19;;;;;;;9.02;3.17;;;19.60;83.60;;;;;;5076497;28;20063;-64
2022/05/13 10:19:09;;;;;;;10.98;3.60;;;19.60;83.60;;;;;;5077911;28;20031;-70
2022/05/13 10:21:42;;;;;;;12.52;4.20;;;19.60;83.30;;;;;;5083040;28;20059;-67
2022/05/13 10:24:19;;;;;;;13.50;3.28;;;19.60;83.00;;;;;;5081025;28;20031;-65
2022/05/13 10:26:48;;;;;;;22.65;3.63;;;19.60;82.80;;;;;;5080118;28;20051;-68
2022/05/13 10:29:37;;;;;;;8.63;2.65;;;19.60;82.10;;;;;;5077192;28;20021;-68
2022/05/13 10:32:27;;;;;;;12.80;2.80;;;19.70;81.60;;;;;;5083207;28;20028;-66
2022/05/13 10:34:57;;;;;;;18.60;3.58;;;19.70;80.50;;;;;;5075252;28;20838;-66
2022/05/13 10:37:41;;;;;;;11.98;3.08;;;19.80;79.10;;;;;;5087116;28;20028;-67
2022/05/13 10:40:19;;;;;;;12.88;2.85;;;19.80;77.80;;;;;;5081547;28;20028;-65
2022/05/13 10:42:55;;;;;;;12.65;2.97;;;19.90;76.40;;;;;;5088864;28;20483;-66
2022/05/13 10:45:27;;;;;;;14.77;3.47;;;19.90;75.20;;;;;;5084535;28;20495;-66
2022/05/13 10:48:17;;;;;;;10.70;3.42;;;19.90;73.90;;;;;;5089580;28;20024;-64
2022/05/13 10:51:11;;;;;;;9.98;2.10;;;19.90;73.10;;;;;;5081770;28;20032;-66
2022/05/13 10:53:54;;;;;;;9.10;2.33;;;19.90;72.30;;;;;;5089844;28;20043;-65
2022/05/13 10:56:30;;;;;;;7.90;2.80;;;19.90;71.70;;;;;;5079572;28;20082;-66
2022/05/13 10:59:26;;;;;;;10.68;3.08;;;19.90;71.50;;;;;;5076008;28;20027;-64
2022/05/13 11:02:15;;;;;;;7.20;2.88;;;20.00;72.00;;;;;;5083627;28;20044;-70
2022/05/13 11:04:51;;;;;;;16.42;3.03;;;20.00;72.50;;;;;;5079953;28;20025;-67
2022/05/13 11:07:20;;;;;;;14.23;4.10;;;20.00;72.80;;;;;;5078871;28;20020;-68
2022/05/13 11:10:17;;;;;;;9.40;2.92;;;20.00;72.70;;;;;;5078417;28;20465;-66
2022/05/13 11:12:49;;;;;;;10.73;4.28;;;20.10;72.20;;;;;;5080717;28;20388;-69
2022/05/13 11:15:40;;;;;;;11.63;3.20;;;20.10;71.90;;;;;;5090391;28;20016;-68
2022/05/13 11:18:47;;;;;;;12.73;3.85;;;20.10;72.30;;;;;;5077951;28;20020;-69
2022/05/13 11:21:37;;;;;;;12.32;3.30;;;20.20;73.70;;;;;;5058496;28;20474;-66
2022/05/13 11:27:16;;;;;;;11.57;2.97;;;20.20;74.90;;;;;;5080218;28;20086;-66
2022/05/13 11:29:53;;;;;;;9.52;3.10;;;20.30;74.90;;;;;;5076999;28;20543;-64
2022/05/13 11:32:36;;;;;;;13.65;5.00;;;20.30;75.00;;;;;;5086591;28;20483;-69
2022/05/13 11:35:39;;;;;;;9.65;3.53;;;20.40;75.20;;;;;;5081470;28;20028;-65
2022/05/13 11:38:25;;;;;;;15.45;3.30;;;20.40;75.30;;;;;;5078046;28;20024;-66
2022/05/13 11:41:10;;;;;;;18.75;3.55;;;20.40;74.70;;;;;;5088364;28;20027;-67
2022/05/13 11:43:50;;;;;;;11.27;3.30;;;20.40;73.90;;;;;;5085159;28;20040;-67
2022/05/13 11:46:41;;;;;;;9.55;2.83;;;20.40;73.60;;;;;;5073525;28;20097;-69
2022/05/13 11:49:37;;;;;;;7.07;2.63;;;20.40;73.30;;;;;;5081204;28;20020;-69
2022/05/13 11:52:36;;;;;;;10.38;2.67;;;20.40;72.80;;;;;;5056678;28;20047;-69
2022/05/13 11:55:48;;;;;;;14.45;3.95;;;20.40;72.80;;;;;;5075693;28;20024;-69
2022/05/13 11:58:47;;;;;;;10.85;2.83;;;20.40;72.70;;;;;;5067956;28;20037;-68
2022/05/13 12:01:34;;;;;;;15.38;3.35;;;20.40;72.30;;;;;;5077616;28;20040;-67
2022/05/13 12:04:13;;;;;;;11.48;3.65;;;20.40;71.90;;;;;;5078205;28;20055;-64
2022/05/13 12:06:51;;;;;;;10.57;3.08;;;20.50;71.60;;;;;;5083925;28;20051;-68
2022/05/13 12:09:33;;;;;;;11.32;2.42;;;20.50;71.00;;;;;;5084995;28;20032;-68
2022/05/13 12:12:12;;;;;;;9.68;3.47;;;20.50;70.60;;;;;;5081237;28;20110;-68
2022/05/13 12:14:41;;;;;;;11.77;3.47;;;20.60;70.40;;;;;;5078851;28;20064;-65
2022/05/13 12:17:26;;;;;;;13.00;2.55;;;20.60;70.40;;;;;;5073711;28;20167;-67
2022/05/13 12:20:31;;;;;;;9.38;2.70;;;20.70;70.50;;;;;;5074165;28;20036;-69
2022/05/13 12:23:22;;;;;;;6.03;3.05;;;20.80;70.20;;;;;;5083638;28;20031;-69
2022/05/13 12:26:03;;;;;;;11.50;2.70;;;20.90;70.10;;;;;;5081075;28;20061;-69
2022/05/13 12:28:58;;;;;;;12.43;2.33;;;20.90;69.70;;;;;;5083894;28;20023;-68
2022/05/13 12:31:34;;;;;;;7.78;2.55;;;21.00;69.50;;;;;;5076359;28;20048;-68
2022/05/13 12:39:53;;;;;;;8.63;2.35;;;21.20;68.40;;;;;;5081860;28;20035;-69
2022/05/13 12:42:47;;;;;;;8.80;2.65;;;21.30;68.20;;;;;;5088406;28;20027;-66
2022/05/13 12:45:22;;;;;;;10.40;2.80;;;21.30;68.00;;;;;;5076642;28;20490;-67
2022/05/13 12:48:06;;;;;;;8.90;2.83;;;21.40;67.90;;;;;;5077845;28;20372;-67
2022/05/13 12:50:45;;;;;;;9.97;2.17;;;21.40;67.60;;;;;;5085041;28;20026;-66
2022/05/13 12:53:30;;;;;;;13.55;3.22;;;21.40;67.20;;;;;;5081237;28;20012;-69
2022/05/13 12:56:16;;;;;;;18.20;3.65;;;21.40;67.20;;;;;;5072785;28;20392;-67
2022/05/13 12:59:34;;;;;;;10.60;3.45;;;21.40;67.30;;;;;;5087244;28;20432;-66
2022/05/13 13:02:40;;;;;;;15.27;3.80;;;21.40;66.60;;;;;;5036187;28;20032;-69
2022/05/13 13:05:50;;;;;;;16.77;3.45;;;21.40;65.80;;;;;;5077749;28;20040;-70
2022/05/13 13:08:56;;;;;;;16.58;3.05;;;21.40;65.70;;;;;;5074267;28;20400;-67
2022/05/13 13:11:45;;;;;;;13.05;2.90;;;21.40;65.70;;;;;;5078819;28;20029;-69
2022/05/13 13:14:35;;;;;;;11.15;3.22;;;21.40;66.10;;;;;;5077207;28;20027;-68
2022/05/13 13:17:24;;;;;;;15.68;3.45;;;21.40;66.00;;;;;;5073659;28;20047;-68
2022/05/13 13:20:30;;;;;;;15.25;4.57;;;21.40;66.40;;;;;;5075190;28;20103;-68
2022/05/13 13:23:36;;;;;;;11.25;3.20;;;21.40;65.00;;;;;;5080360;28;20027;-71
2022/05/13 13:26:42;;;;;;;16.75;3.58;;;21.40;65.00;;;;;;5075504;28;20562;-65
2022/05/13 13:29:48;;;;;;;18.75;3.97;;;21.40;63.90;;;;;;5081207;28;20069;-65
2022/05/13 13:32:54;;;;;;;13.15;3.00;;;21.40;64.40;;;;;;5080532;28;20024;-67
2022/05/13 13:36:12;;;;;;;13.45;2.70;;;21.40;64.50;;;;;;5082128;28;20133;-65
2022/05/13 13:39:19;;;;;;;9.60;4.00;;;21.40;64.80;;;;;;5075941;28;20025;-68
2022/05/13 13:42:04;;;;;;;;;;;21.40;65.00;;;;;;5076359;28;20017;-65
2022/05/13 13:45:24;;;;;;;15.15;2.80;;;21.40;65.30;;;;;;5079402;28;19951;-64
2022/05/13 13:48:37;;;;;;;34.05;4.63;;;21.40;65.40;;;;;;5075175;28;20487;-65